Time;durP1;ratioP1;P1;durP2;ratioP2;P2;SDS_P1;SDS_P2;PMS_P1;PMS_P2;Temp;Humidity;BMP_temperature;BMP_pressure;BME280_temperature;BME280_humidity;BME280_pressure;Samples;Min_cycle;Max_cycle;Signal;HPM_P1;HPM_P2
2021/12/02 00:00:34;;;;;;;;;;;9.80;63.50;;;;;;5049741;28;20029;-84
2021/12/02 00:03:03;;;;;;;3.50;1.02;;;9.80;63.50;;;;;;5044797;28;20345;-84
2021/12/02 00:05:29;;;;;;;1.98;1.13;;;9.80;63.20;;;;;;5044619;28;20029;-84
2021/12/02 00:07:54;;;;;;;;;;;9.80;63.40;;;;;;5053850;28;20040;-84
2021/12/02 00:10:26;;;;;;;3.47;1.73;;;9.80;63.70;;;;;;5049891;28;19913;-84
2021/12/02 00:12:53;;;;;;;3.47;1.38;;;9.80;63.60;;;;;;5049335;28;20048;-84
2021/12/02 00:15:23;;;;;;;1.80;1.10;;;9.80;63.50;;;;;;5034005;28;20048;-84
2021/12/02 00:17:55;;;;;;;2.08;1.15;;;9.80;63.70;;;;;;5043204;28;20553;-85
2021/12/02 00:23:34;;;;;;;2.25;1.30;;;9.80;63.70;;;;;;5046218;28;20037;-84
2021/12/02 00:26:04;;;;;;;4.07;1.63;;;9.70;64.10;;;;;;5020027;28;20044;-84
2021/12/02 00:28:31;;;;;;;2.33;1.00;;;9.80;63.80;;;;;;5044853;28;20029;-85
2021/12/02 00:30:58;;;;;;;1.80;1.00;;;9.80;63.90;;;;;;5046154;28;20033;-85
2021/12/02 00:33:26;;;;;;;1.85;1.05;;;9.80;63.80;;;;;;5033000;28;20112;-85
2021/12/02 00:35:52;;;;;;;2.72;1.30;;;9.70;63.80;;;;;;5041168;28;20524;-85
2021/12/02 00:38:22;;;;;;;2.10;1.13;;;9.80;63.40;;;;;;5049145;28;20053;-84
2021/12/02 00:40:49;;;;;;;4.07;1.27;;;9.80;63.50;;;;;;5046793;28;20035;-84
2021/12/02 00:43:15;;;;;;;2.05;1.13;;;9.70;63.70;;;;;;5044047;28;20048;-84
2021/12/02 00:45:44;;;;;;;;;;;9.80;63.40;;;;;;5043001;28;20025;-84
2021/12/02 00:48:11;;;;;;;3.17;1.48;;;9.80;63.70;;;;;;5043553;28;19913;-84
2021/12/02 00:50:40;;;;;;;2.63;1.50;;;9.80;63.60;;;;;;5042735;28;20040;-84
2021/12/02 00:53:07;;;;;;;3.97;1.50;;;9.80;63.80;;;;;;5040461;28;20490;-85
2021/12/02 00:55:36;;;;;;;2.05;1.30;;;9.80;63.60;;;;;;5037667;28;20033;-85
2021/12/02 00:58:02;;;;;;;1.80;1.13;;;9.70;63.80;;;;;;5051649;28;20036;-85
2021/12/02 01:00:28;;;;;;;1.88;1.23;;;9.80;63.70;;;;;;5052656;28;20032;-85
2021/12/02 01:02:59;;;;;;;0.82;0.65;;;9.80;63.50;;;;;;5043887;28;20036;-85
2021/12/02 01:05:25;;;;;;;1.73;1.30;;;9.80;63.10;;;;;;5050525;28;20064;-86
2021/12/02 01:07:52;;;;;;;3.40;1.30;;;9.80;63.30;;;;;;5043217;28;20124;-85
2021/12/02 01:10:20;;;;;;;2.70;1.50;;;9.80;63.20;;;;;;5043166;28;20416;-85
2021/12/02 01:12:46;;;;;;;4.45;1.35;;;9.80;63.40;;;;;;5044039;28;20048;-85
2021/12/02 01:15:13;;;;;;;2.17;1.48;;;9.70;63.70;;;;;;5045936;28;20116;-85
2021/12/02 01:17:39;;;;;;;3.50;1.58;;;9.70;63.90;;;;;;5033396;28;20038;-85
2021/12/02 01:20:09;;;;;;;2.03;1.02;;;9.70;64.10;;;;;;5043959;28;20481;-84
2021/12/02 01:22:38;;;;;;;1.75;1.25;;;9.60;64.40;;;;;;5034714;28;20029;-84
2021/12/02 01:25:05;;;;;;;3.13;1.63;;;9.70;64.00;;;;;;5033397;28;20033;-84
2021/12/02 01:27:34;;;;;;;4.93;1.90;;;9.60;64.20;;;;;;5040730;28;20025;-84
2021/12/02 01:30:00;;;;;;;2.92;1.80;;;9.60;64.40;;;;;;5040533;28;20474;-84
2021/12/02 01:32:27;;;;;;;;;;;9.60;64.30;;;;;;5040864;28;20105;-85
2021/12/02 01:34:55;;;;;;;4.93;2.07;;;9.70;64.10;;;;;;5051352;28;20323;-84
2021/12/02 01:37:23;;;;;;;3.60;1.58;;;9.70;64.00;;;;;;5037388;28;20018;-85
2021/12/02 01:39:49;;;;;;;2.28;1.25;;;9.60;64.40;;;;;;5039252;28;20124;-85
2021/12/02 01:42:22;;;;;;;;;;;9.60;64.20;;;;;;5039901;28;20426;-85
2021/12/02 01:44:50;;;;;;;0.80;0.65;;;9.70;64.10;;;;;;5048293;28;19909;-85
2021/12/02 01:47:19;;;;;;;2.42;1.33;;;9.60;63.90;;;;;;5046841;28;20119;-84
2021/12/02 01:49:48;;;;;;;1.92;1.40;;;9.60;64.20;;;;;;5047621;28;20067;-85
2021/12/02 01:52:14;;;;;;;2.50;1.40;;;9.60;64.30;;;;;;5050528;28;20021;-85
2021/12/02 01:54:42;;;;;;;;;;;9.60;64.40;;;;;;5032119;28;20488;-85
2021/12/02 01:57:08;;;;;;;2.70;1.42;;;9.60;64.40;;;;;;5039309;28;20039;-85
2021/12/02 01:59:35;;;;;;;;;;;9.60;64.30;;;;;;5045784;28;20493;-84
2021/12/02 02:02:04;;;;;;;3.70;1.60;;;9.50;64.60;;;;;;5041452;28;20361;-83
2021/12/02 02:04:29;;;;;;;2.05;1.40;;;9.50;64.50;;;;;;5031226;28;20489;-84
2021/12/02 02:07:00;;;;;;;;;;;9.40;64.80;;;;;;5038609;28;20021;-83
2021/12/02 02:09:28;;;;;;;3.67;1.58;;;9.30;65.10;;;;;;5039938;28;19913;-84
2021/12/02 02:11:54;;;;;;;4.57;1.77;;;9.30;65.20;;;;;;5046986;28;20055;-84
2021/12/02 02:14:20;;;;;;;;;;;9.20;65.50;;;;;;5039440;28;20108;-85
2021/12/02 02:16:47;;;;;;;4.20;1.83;;;9.10;65.70;;;;;;5051065;28;19908;-85
2021/12/02 02:19:13;;;;;;;3.15;1.60;;;9.10;65.60;;;;;;5032826;28;20032;-85
2021/12/02 02:21:39;;;;;;;;;;;9.00;65.80;;;;;;5038234;28;20020;-85
2021/12/02 02:24:07;;;;;;;2.95;1.60;;;9.10;65.80;;;;;;5042188;28;19938;-84
2021/12/02 02:26:35;;;;;;;1.92;1.40;;;9.10;65.60;;;;;;5035457;28;20024;-83
2021/12/02 02:29:03;;;;;;;2.50;1.52;;;9.10;65.70;;;;;;5042838;28;20522;-84
2021/12/02 02:31:30;;;;;;;1.73;1.33;;;9.20;65.70;;;;;;5039097;28;20061;-84
2021/12/02 02:33:56;;;;;;;2.35;1.50;;;9.20;65.70;;;;;;5044907;28;20075;-85
2021/12/02 02:36:24;;;;;;;3.67;1.60;;;9.30;65.60;;;;;;5041516;28;20056;-84
2021/12/02 02:38:56;;;;;;;3.65;1.73;;;9.30;65.60;;;;;;5044419;28;20109;-85
2021/12/02 02:41:42;;;;;;;3.55;1.58;;;9.30;65.50;;;;;;5032479;28;20605;-85
2021/12/02 02:44:09;;;;;;;3.60;1.75;;;9.40;65.50;;;;;;5042456;28;20068;-85
2021/12/02 02:46:37;;;;;;;6.53;2.00;;;9.40;65.50;;;;;;5041340;28;21790;-85
2021/12/02 02:49:07;;;;;;;3.22;1.80;;;9.40;65.50;;;;;;5044632;28;20022;-85
2021/12/02 02:51:36;;;;;;;3.45;2.05;;;9.40;65.60;;;;;;5039695;28;20037;-84
2021/12/02 02:54:05;;;;;;;2.97;1.48;;;9.40;65.60;;;;;;5046013;28;20466;-84
2021/12/02 02:56:33;;;;;;;3.83;1.77;;;9.30;65.60;;;;;;5033013;28;20107;-84
2021/12/02 02:59:10;;;;;;;3.53;1.80;;;9.30;65.70;;;;;;5046808;28;20482;-84
2021/12/02 03:01:48;;;;;;;3.88;2.10;;;9.40;65.80;;;;;;5040690;28;20044;-84
2021/12/02 03:17:22;;;;;;;2.80;1.40;;;9.30;65.90;;;;;;5030698;28;20396;-84
2021/12/02 03:19:50;;;;;;;;;;;9.30;65.80;;;;;;5046820;28;20115;-84
2021/12/02 03:22:16;;;;;;;4.55;2.38;;;9.30;65.80;;;;;;5052764;28;19991;-84
2021/12/02 03:24:42;;;;;;;3.05;1.75;;;9.20;65.70;;;;;;5049557;28;20043;-84
2021/12/02 03:27:08;;;;;;;;;;;9.10;66.00;;;;;;5050416;28;20025;-84
2021/12/02 03:29:34;;;;;;;2.72;1.50;;;9.00;66.20;;;;;;5049935;28;19912;-85
2021/12/02 03:31:59;;;;;;;;;;;9.10;66.00;;;;;;5054848;28;20100;-84
2021/12/02 03:34:25;;;;;;;3.92;1.92;;;9.10;66.10;;;;;;5044439;28;19948;-85
2021/12/02 03:36:51;;;;;;;;;;;9.10;66.00;;;;;;5047650;28;20082;-84
2021/12/02 03:39:17;;;;;;;3.08;1.70;;;9.10;66.10;;;;;;5068988;28;19908;-85
2021/12/02 03:41:43;;;;;;;;;;;9.10;65.90;;;;;;5057813;28;20024;-85
2021/12/02 03:44:09;;;;;;;3.13;1.63;;;9.10;66.00;;;;;;5041369;28;20360;-84
2021/12/02 03:46:35;;;;;;;;;;;9.20;65.90;;;;;;5049686;28;20027;-85
2021/12/02 03:49:00;;;;;;;4.53;1.80;;;9.10;65.90;;;;;;5038331;28;20250;-84
2021/12/02 03:51:26;;;;;;;;;;;9.10;65.80;;;;;;5043806;28;20032;-85
2021/12/02 03:53:52;;;;;;;2.95;1.55;;;9.10;65.90;;;;;;5052424;28;19912;-85
2021/12/02 03:56:20;;;;;;;;;;;9.20;65.70;;;;;;5051650;28;20043;-85
2021/12/02 03:58:47;;;;;;;4.95;2.17;;;9.00;66.00;;;;;;5049178;28;20371;-85
2021/12/02 04:01:14;;;;;;;4.28;2.00;;;9.00;66.00;;;;;;5036569;28;20048;-85
2021/12/02 04:03:40;;;;;;;1.85;1.30;;;8.90;66.30;;;;;;5045100;28;20272;-86
2021/12/02 04:06:07;;;;;;;;;;;8.80;66.60;;;;;;5048106;28;20040;-85
2021/12/02 04:08:44;;;;;;;2.95;1.80;;;8.80;66.50;;;;;;5057527;28;19963;-84
2021/12/02 04:13:45;;;;;;;2.53;1.70;;;8.70;66.60;;;;;;5069340;28;20032;-84
2021/12/02 04:16:16;;;;;;;3.28;1.90;;;8.70;66.70;;;;;;5046867;28;20023;-84
2021/12/02 04:18:41;;;;;;;1.85;1.48;;;8.70;66.60;;;;;;5055038;28;20491;-85
2021/12/02 04:21:07;;;;;;;;;;;8.70;66.60;;;;;;5054742;28;20016;-85
2021/12/02 04:23:32;;;;;;;3.22;1.67;;;8.70;66.70;;;;;;5047108;28;19917;-85
2021/12/02 04:25:58;;;;;;;;;;;8.70;66.60;;;;;;5036436;28;20028;-84
2021/12/02 04:28:23;;;;;;;4.65;1.58;;;8.60;66.70;;;;;;5046422;28;19909;-85
2021/12/02 04:30:49;;;;;;;;;;;8.60;66.60;;;;;;5043888;28;20033;-85
2021/12/02 04:33:17;;;;;;;2.75;1.38;;;8.60;66.70;;;;;;5044247;28;19955;-85
2021/12/02 04:35:43;;;;;;;2.95;1.35;;;8.50;66.60;;;;;;5044680;28;20385;-84
2021/12/02 04:38:11;;;;;;;;;;;8.50;66.60;;;;;;5037234;28;20025;-85
2021/12/02 04:40:41;;;;;;;4.68;1.90;;;8.60;66.70;;;;;;5036620;28;20272;-85
2021/12/02 04:43:06;;;;;;;5.05;2.10;;;8.60;66.50;;;;;;5044943;28;20074;-84
2021/12/02 04:45:32;;;;;;;;;;;8.60;66.50;;;;;;5055953;28;20494;-85
2021/12/02 04:47:57;;;;;;;3.40;1.65;;;8.60;66.50;;;;;;5048354;28;19915;-84
2021/12/02 04:50:23;;;;;;;;;;;8.60;66.40;;;;;;5038879;28;20114;-85
2021/12/02 04:52:50;;;;;;;2.78;1.60;;;8.60;66.50;;;;;;5067480;28;19908;-85
2021/12/02 04:55:15;;;;;;;4.38;2.30;;;8.60;66.30;;;;;;5046735;28;20413;-84
2021/12/02 04:57:41;;;;;;;;;;;8.60;66.40;;;;;;5047162;28;20021;-83
2021/12/02 05:00:07;;;;;;;2.65;1.85;;;8.60;66.40;;;;;;5046834;28;19904;-84
2021/12/02 05:02:33;;;;;;;5.95;3.05;;;8.60;66.20;;;;;;5054722;28;20097;-85
2021/12/02 05:04:59;;;;;;;;;;;8.60;66.20;;;;;;5068227;28;20025;-85
2021/12/02 05:07:24;;;;;;;5.85;2.60;;;8.60;66.30;;;;;;5074301;28;20429;-85
2021/12/02 05:09:53;;;;;;;;;;;8.70;66.00;;;;;;5036992;28;20078;-84
2021/12/02 05:12:19;;;;;;;2.60;1.40;;;8.70;66.20;;;;;;5051506;28;19923;-85
2021/12/02 05:14:44;;;;;;;4.53;2.28;;;8.70;65.90;;;;;;5037014;28;20025;-85
2021/12/02 05:17:10;;;;;;;;;;;8.70;65.90;;;;;;5050963;28;20024;-86
2021/12/02 05:19:36;;;;;;;4.93;2.15;;;8.70;65.90;;;;;;5064174;28;19908;-85
2021/12/02 05:22:01;;;;;;;;;;;8.80;65.60;;;;;;5044806;28;20409;-84
2021/12/02 05:24:27;;;;;;;6.20;2.28;;;8.80;65.60;;;;;;5045188;28;19908;-84
2021/12/02 05:26:52;;;;;;;;;;;8.80;65.50;;;;;;5039702;28;20029;-85
2021/12/02 05:29:18;;;;;;;7.00;2.40;;;8.80;65.50;;;;;;5047432;28;19908;-84
2021/12/02 05:31:43;;;;;;;;;;;8.70;65.50;;;;;;5046340;28;20029;-84
2021/12/02 05:34:09;;;;;;;5.05;2.35;;;8.60;65.60;;;;;;5049414;28;19957;-84
2021/12/02 05:36:34;;;;;;;;;;;8.60;65.60;;;;;;5047088;28;20024;-86
2021/12/02 05:39:00;;;;;;;3.53;1.30;;;8.50;66.00;;;;;;5046602;28;19949;-84
2021/12/02 05:41:25;;;;;;;;;;;8.40;66.00;;;;;;5040849;28;20086;-84
2021/12/02 05:43:51;;;;;;;4.28;2.17;;;8.40;66.20;;;;;;5048077;28;20284;-84
2021/12/02 05:46:16;;;;;;;;;;;8.30;66.30;;;;;;5063347;28;20060;-84
2021/12/02 05:48:42;;;;;;;5.55;2.92;;;8.30;66.50;;;;;;5039890;28;19921;-84
2021/12/02 05:51:07;;;;;;;;;;;8.30;66.40;;;;;;5045704;28;20024;-84
2021/12/02 05:53:33;;;;;;;5.85;3.28;;;8.30;66.70;;;;;;5048616;28;20341;-84
2021/12/02 05:55:58;;;;;;;;;;;8.30;66.70;;;;;;5048542;28;20052;-85
2021/12/02 05:58:24;;;;;;;5.75;3.42;;;8.20;66.90;;;;;;5050579;28;19916;-84
2021/12/02 06:00:50;;;;;;;;;;;8.20;66.90;;;;;;5038970;28;20025;-84
2021/12/02 06:03:16;;;;;;;12.27;5.53;;;8.10;67.20;;;;;;5053773;28;19908;-84
2021/12/02 06:05:44;;;;;;;;;;;8.00;67.40;;;;;;5040126;28;20450;-84
2021/12/02 06:08:10;;;;;;;11.93;4.90;;;7.90;67.60;;;;;;5042187;28;20376;-84
2021/12/02 06:10:38;;;;;;;;;;;7.80;67.70;;;;;;5034853;28;20021;-84
2021/12/02 06:13:03;;;;;;;9.83;4.67;;;7.70;68.10;;;;;;5035047;28;19928;-84
2021/12/02 06:15:29;;;;;;;;;;;7.70;68.10;;;;;;5055126;28;20017;-84
2021/12/02 06:17:54;;;;;;;8.75;5.00;;;7.60;68.30;;;;;;5054415;28;20321;-84
2021/12/02 06:20:20;;;;;;;;;;;7.50;68.30;;;;;;5035591;28;20025;-83
2021/12/02 06:22:46;;;;;;;22.23;4.95;;;7.40;68.60;;;;;;5034890;28;19909;-85
2021/12/02 06:27:52;;;;;;;9.80;4.40;;;7.30;68.80;;;;;;5064856;28;20136;-84
2021/12/02 06:30:18;;;;;;;7.47;2.70;;;7.30;69.10;;;;;;5035927;28;20030;-84
2021/12/02 06:32:44;;;;;;;8.40;3.53;;;7.30;69.10;;;;;;5041484;28;20060;-85
2021/12/02 06:35:10;;;;;;;;;;;7.30;69.10;;;;;;5042785;28;20021;-84
2021/12/02 06:37:36;;;;;;;7.47;3.25;;;7.30;69.10;;;;;;5049867;28;19909;-83
2021/12/02 06:40:04;;;;;;;7.17;3.27;;;7.30;68.80;;;;;;5047971;28;20068;-88
2021/12/02 06:42:29;;;;;;;6.67;3.07;;;7.30;69.10;;;;;;5053554;28;20028;-89
2021/12/02 06:44:57;;;;;;;;;;;7.30;69.20;;;;;;5050318;28;20144;-89
2021/12/02 06:47:56;;;;;;;;;;;;;;;;;;;;;
2021/12/02 06:50:32;;;;;;;2.75;1.30;;;7.50;69.00;;;;;;5069121;28;19916;-88
2021/12/02 06:52:57;;;;;;;3.93;2.10;;;7.70;68.50;;;;;;5042042;28;20021;-85
2021/12/02 06:55:23;;;;;;;;;;;7.80;68.40;;;;;;5049491;28;20036;-86
2021/12/02 06:57:48;;;;;;;4.38;2.33;;;7.90;68.30;;;;;;5046666;28;19916;-86
2021/12/02 07:00:16;;;;;;;;;;;8.00;68.00;;;;;;5053736;28;20024;-85
2021/12/02 07:02:42;;;;;;;;;;;8.20;67.80;;;;;;5048162;28;19959;-86
2021/12/02 07:05:11;;;;;;;3.90;1.70;;;8.30;67.50;;;;;;5038870;28;20356;-85
2021/12/02 07:07:37;;;;;;;14.95;3.80;;;8.40;66.90;;;;;;5056258;28;20052;-85
2021/12/02 07:10:04;;;;;;;;;;;8.40;67.10;;;;;;5045391;28;20485;-85
2021/12/02 07:12:33;;;;;;;7.45;2.30;;;8.50;67.30;;;;;;5049866;28;19959;-85
2021/12/02 07:15:10;;;;;;;10.90;3.08;;;8.60;67.00;;;;;;5047919;28;20025;-86
2021/12/02 07:17:36;;;;;;;7.30;2.25;;;8.60;67.10;;;;;;5050162;28;20029;-85
2021/12/02 07:20:02;;;;;;;;;;;8.70;66.80;;;;;;5049173;28;20036;-86
2021/12/02 07:22:28;;;;;;;8.05;2.63;;;8.80;66.60;;;;;;5053705;28;19908;-86
2021/12/02 07:24:53;;;;;;;;;;;9.00;66.50;;;;;;5047610;28;20056;-88
2021/12/02 07:27:19;;;;;;;8.23;3.97;;;9.00;66.60;;;;;;5056981;28;19958;-85
2021/12/02 07:29:45;;;;;;;;;;;9.10;66.40;;;;;;5047749;28;20041;-89
2021/12/02 07:32:11;;;;;;;13.13;2.55;;;9.20;66.50;;;;;;5038464;28;19920;-88
2021/12/02 07:34:43;;;;;;;15.90;3.30;;;9.20;66.30;;;;;;5047220;28;20365;-89
2021/12/02 07:37:15;;;;;;;5.68;2.13;;;9.20;66.30;;;;;;5035937;28;20045;-88
2021/12/02 07:39:42;;;;;;;15.68;3.05;;;9.20;66.00;;;;;;5055298;28;20021;-88
2021/12/02 07:42:08;;;;;;;3.95;1.80;;;9.30;65.90;;;;;;5053217;28;20485;-88
2021/12/02 07:44:34;;;;;;;;;;;9.30;65.80;;;;;;5049582;28;20108;-89
2021/12/02 07:47:01;;;;;;;8.50;2.38;;;9.30;65.40;;;;;;5054953;28;19999;-87
2021/12/02 07:49:27;;;;;;;4.60;2.00;;;9.40;64.70;;;;;;5035800;28;20071;-87
2021/12/02 07:51:52;;;;;;;;;;;9.40;64.60;;;;;;5042780;28;20029;-87
2021/12/02 07:54:18;;;;;;;4.28;1.92;;;9.30;64.80;;;;;;5044183;28;19912;-87
2021/12/02 07:56:45;;;;;;;;;;;9.40;64.40;;;;;;5035431;28;20013;-88
2021/12/02 07:59:14;;;;;;;4.22;1.98;;;9.40;64.50;;;;;;5054544;28;19909;-87
2021/12/02 08:01:39;;;;;;;5.18;2.30;;;9.40;64.40;;;;;;5046414;28;20497;-87
2021/12/02 08:04:05;;;;;;;;;;;9.40;64.50;;;;;;5038284;28;20026;-86
2021/12/02 08:06:30;;;;;;;5.57;2.72;;;9.40;64.70;;;;;;5044036;28;19912;-87
2021/12/02 08:08:56;;;;;;;;;;;9.50;64.50;;;;;;5038256;28;20025;-87
2021/12/02 08:11:24;;;;;;;5.20;2.85;;;9.50;64.50;;;;;;5056419;28;19947;-87
2021/12/02 08:13:53;;;;;;;6.00;3.00;;;9.50;64.40;;;;;;5048827;28;20048;-87
2021/12/02 08:16:18;;;;;;;4.32;2.28;;;9.50;64.60;;;;;;5040791;28;20413;-87
2021/12/02 08:18:44;;;;;;;;;;;9.50;64.60;;;;;;5044530;28;20079;-88
2021/12/02 08:21:10;;;;;;;5.80;2.33;;;9.50;64.40;;;;;;5045844;28;19908;-88
2021/12/02 08:23:36;;;;;;;;;;;9.60;64.20;;;;;;5046911;28;20049;-87
2021/12/02 08:26:01;;;;;;;15.65;2.90;;;9.60;64.20;;;;;;5055842;28;19923;-88
2021/12/02 08:28:28;;;;;;;8.32;2.17;;;9.70;63.70;;;;;;5054458;28;20109;-87
2021/12/02 08:30:54;;;;;;;11.98;5.43;;;9.70;63.60;;;;;;5047131;28;20433;-87
2021/12/02 08:33:20;;;;;;;10.68;3.20;;;9.70;63.80;;;;;;5047553;28;20021;-88
2021/12/02 08:35:48;;;;;;;;;;;9.70;64.20;;;;;;5047604;28;20120;-88
2021/12/02 08:38:16;;;;;;;7.43;3.15;;;9.70;64.50;;;;;;5054738;28;19972;-85
2021/12/02 08:40:42;;;;;;;2.97;1.52;;;9.70;64.60;;;;;;5053485;28;20024;-85
2021/12/02 08:43:11;;;;;;;6.72;2.47;;;9.70;64.80;;;;;;5053512;28;20036;-84
2021/12/02 08:45:38;;;;;;;3.72;1.88;;;9.60;65.30;;;;;;5052959;28;20143;-86
2021/12/02 08:48:05;;;;;;;6.25;2.88;;;9.60;65.30;;;;;;5053186;28;20025;-84
2021/12/02 08:50:32;;;;;;;2.78;1.75;;;9.60;65.50;;;;;;5050502;28;20029;-84
2021/12/02 08:52:58;;;;;;;6.68;3.60;;;9.70;65.40;;;;;;5033416;28;20040;-85
2021/12/02 08:55:25;;;;;;;3.75;2.17;;;9.70;65.40;;;;;;5033425;28;20025;-84
2021/12/02 08:57:53;;;;;;;5.68;2.25;;;9.70;65.70;;;;;;5043068;28;20060;-85
2021/12/02 09:00:22;;;;;;;8.52;4.00;;;9.80;65.50;;;;;;5034941;28;20035;-84
2021/12/02 09:02:48;;;;;;;7.35;2.85;;;9.80;65.70;;;;;;5033586;28;20433;-85
2021/12/02 09:05:14;;;;;;;;;;;9.80;65.80;;;;;;5038064;28;20025;-85
2021/12/02 09:07:40;;;;;;;5.95;2.10;;;9.80;65.80;;;;;;5053539;28;19909;-85
2021/12/02 09:10:06;;;;;;;;;;;9.80;65.40;;;;;;5038182;28;20026;-85
2021/12/02 09:12:32;;;;;;;7.72;2.88;;;9.80;65.40;;;;;;5053087;28;19917;-84
2021/12/02 09:14:57;;;;;;;;;;;9.80;65.20;;;;;;5052897;28;20021;-85
2021/12/02 09:17:23;;;;;;;5.75;2.25;;;9.80;65.30;;;;;;5049815;28;20230;-85
2021/12/02 09:19:48;;;;;;;;;;;9.90;64.80;;;;;;5033541;28;20036;-85
2021/12/02 09:22:14;;;;;;;5.43;2.35;;;9.80;65.10;;;;;;5049707;28;19909;-85
2021/12/02 09:24:39;;;;;;;;;;;9.80;65.10;;;;;;5039119;28;20033;-85
2021/12/02 09:27:05;;;;;;;10.05;3.05;;;9.90;64.90;;;;;;5049233;28;19917;-86
2021/12/02 09:29:31;;;;;;;;;;;9.90;64.70;;;;;;5043086;28;20458;-86
2021/12/02 09:31:56;;;;;;;10.65;3.22;;;9.90;64.80;;;;;;5050544;28;19915;-85
2021/12/02 09:34:22;;;;;;;;;;;9.90;64.70;;;;;;5043574;28;20051;-85
2021/12/02 09:36:48;;;;;;;4.68;2.30;;;10.00;64.50;;;;;;5050059;28;19952;-85
2021/12/02 09:39:15;;;;;;;4.82;2.28;;;10.10;64.00;;;;;;5034129;28;20517;-85
2021/12/02 09:41:44;;;;;;;5.78;2.70;;;10.20;63.80;;;;;;5045025;28;20358;-85
2021/12/02 09:44:10;;;;;;;4.88;2.50;;;10.10;63.50;;;;;;5038593;28;20112;-88
2021/12/02 09:46:48;;;;;;;7.50;3.03;;;10.20;63.40;;;;;;5047952;28;20072;-89
2021/12/02 09:49:15;;;;;;;5.32;2.90;;;10.20;63.30;;;;;;5041891;28;20024;-89
2021/12/02 09:54:39;;;;;;;4.22;1.63;;;10.30;63.10;;;;;;5045824;28;20025;-88
2021/12/02 09:57:10;;;;;;;9.23;2.35;;;10.30;62.50;;;;;;5050389;28;20024;-88
2021/12/02 10:02:07;;;;;;;5.53;2.47;;;10.40;62.30;;;;;;5038349;28;20082;-87
2021/12/02 10:04:38;;;;;;;7.13;2.88;;;10.40;61.90;;;;;;5046552;28;20112;-88
2021/12/02 10:07:06;;;;;;;6.22;3.05;;;10.40;61.20;;;;;;5047219;28;20064;-89
2021/12/02 10:09:51;;;;;;;4.47;2.30;;;10.30;61.70;;;;;;5048074;28;20043;-88
2021/12/02 10:12:19;;;;;;;5.00;2.42;;;10.40;61.50;;;;;;5052095;28;20055;-89
2021/12/02 10:14:55;;;;;;;3.25;1.63;;;10.40;61.40;;;;;;5047504;28;20025;-88
2021/12/02 10:17:33;;;;;;;4.90;2.42;;;10.50;61.10;;;;;;5044072;28;20021;-88
2021/12/02 10:20:30;;;;;;;6.80;2.38;;;10.50;60.20;;;;;;5040882;28;20596;-88
2021/12/02 10:23:17;;;;;;;5.72;2.67;;;10.50;60.20;;;;;;5043655;28;20505;-88
2021/12/02 10:25:58;;;;;;;3.08;1.80;;;10.50;60.40;;;;;;5037964;28;20060;-88
2021/12/02 10:28:28;;;;;;;4.70;2.00;;;10.60;59.60;;;;;;5047085;28;20029;-88
2021/12/02 10:30:57;;;;;;;4.85;2.20;;;10.60;58.70;;;;;;5052867;28;20482;-88
2021/12/02 10:33:35;;;;;;;4.97;2.50;;;10.60;58.40;;;;;;5044665;28;20421;-89
2021/12/02 10:36:04;;;;;;;5.43;2.63;;;10.60;57.80;;;;;;5045916;28;20121;-88
2021/12/02 10:38:45;;;;;;;6.55;1.60;;;10.60;57.70;;;;;;5053573;28;20025;-87
2021/12/02 10:41:17;;;;;;;3.28;2.15;;;10.60;56.80;;;;;;5054231;28;20505;-88
2021/12/02 10:44:23;;;;;;;7.43;2.42;;;10.60;56.90;;;;;;5052670;28;20162;-88
2021/12/02 10:47:07;;;;;;;4.32;2.10;;;10.50;57.50;;;;;;5052563;28;20017;-88
2021/12/02 10:49:39;;;;;;;4.40;2.35;;;10.60;57.40;;;;;;5039030;28;20087;-88
2021/12/02 10:52:09;;;;;;;8.18;3.15;;;10.60;57.20;;;;;;5048231;28;20026;-88
2021/12/02 10:54:38;;;;;;;6.32;3.20;;;10.60;57.00;;;;;;5049969;28;20334;-88
2021/12/02 10:57:19;;;;;;;5.25;2.55;;;10.60;57.40;;;;;;5053713;28;20112;-89
2021/12/02 10:59:50;;;;;;;3.15;1.70;;;10.50;57.60;;;;;;5053098;28;20032;-89
2021/12/02 11:02:37;;;;;;;6.45;3.00;;;10.60;57.60;;;;;;5046479;28;20021;-88
2021/12/02 11:05:07;;;;;;;8.20;4.60;;;10.60;57.70;;;;;;5047341;28;20111;-88
2021/12/02 11:07:39;;;;;;;3.50;2.17;;;10.70;57.40;;;;;;5048140;28;20059;-88
2021/12/02 11:10:08;;;;;;;2.80;1.55;;;10.70;56.70;;;;;;5043510;28;20026;-90
2021/12/02 11:12:37;;;;;;;4.20;1.90;;;10.70;56.40;;;;;;5045400;28;20123;-90
2021/12/02 11:15:02;;;;;;;5.72;2.53;;;10.70;56.50;;;;;;5051089;28;20112;-90
2021/12/02 11:17:30;;;;;;;;;;;10.70;56.30;;;;;;5053552;28;20056;-90
2021/12/02 11:19:57;;;;;;;;;;;10.70;56.40;;;;;;5052066;28;19916;-90
2021/12/02 11:22:34;;;;;;;2.72;1.50;;;10.70;56.00;;;;;;5044343;28;19913;-89
2021/12/02 11:25:00;;;;;;;4.15;1.65;;;10.70;55.50;;;;;;5046325;28;20477;-89
2021/12/02 11:27:48;;;;;;;5.30;1.98;;;10.60;55.40;;;;;;5048007;28;20021;-90
2021/12/02 11:30:19;;;;;;;5.10;2.72;;;10.50;55.80;;;;;;5043943;28;20017;-90
2021/12/02 11:33:40;;;;;;;4.93;2.38;;;10.50;56.10;;;;;;5048093;28;20025;-91
2021/12/02 11:36:15;;;;;;;6.82;3.15;;;10.50;56.50;;;;;;5056461;28;20029;-89
2021/12/02 11:38:41;;;;;;;5.35;2.80;;;10.60;56.50;;;;;;5053882;28;20021;-89
2021/12/02 11:41:08;;;;;;;3.33;1.83;;;10.60;56.60;;;;;;5054870;28;20021;-89
2021/12/02 11:43:34;;;;;;;;;;;10.60;56.80;;;;;;5053745;28;20037;-90
2021/12/02 11:46:02;;;;;;;4.78;2.60;;;10.60;56.80;;;;;;5056477;28;19915;-89
2021/12/02 11:48:39;;;;;;;5.18;2.10;;;10.70;56.60;;;;;;5045232;28;20032;-89
2021/12/02 11:51:08;;;;;;;11.07;5.55;;;10.70;56.40;;;;;;5050692;28;20037;-89
2021/12/02 11:53:34;;;;;;;7.00;2.60;;;10.70;56.20;;;;;;5048784;28;20549;-88
2021/12/02 11:56:01;;;;;;;;;;;10.80;55.80;;;;;;5053747;28;20052;-89
2021/12/02 11:58:28;;;;;;;5.40;2.13;;;10.70;55.50;;;;;;5047279;28;19909;-89
2021/12/02 12:00:55;;;;;;;4.57;2.33;;;10.80;55.70;;;;;;5045990;28;20041;-90
2021/12/02 12:03:35;;;;;;;5.32;2.22;;;10.80;55.80;;;;;;5041171;28;20048;-90
2021/12/02 12:06:06;;;;;;;3.63;1.95;;;10.80;55.60;;;;;;5054257;28;20573;-86
2021/12/02 12:08:36;;;;;;;5.07;2.55;;;10.80;55.30;;;;;;5039744;28;20026;-84
2021/12/02 12:11:25;;;;;;;2.97;1.52;;;10.80;55.40;;;;;;5044646;28;20137;-84
2021/12/02 12:14:42;;;;;;;6.88;3.05;;;10.80;55.20;;;;;;5039626;28;20021;-84
2021/12/02 12:17:10;;;;;;;8.60;3.67;;;10.70;55.20;;;;;;5052106;28;20035;-84
2021/12/02 12:19:50;;;;;;;7.85;2.45;;;10.70;55.40;;;;;;5045117;28;20024;-84
2021/12/02 12:22:33;;;;;;;4.95;3.25;;;10.70;55.20;;;;;;5050025;28;20466;-81
2021/12/02 12:25:03;;;;;;;6.53;2.78;;;10.60;55.40;;;;;;5046969;28;20163;-83
2021/12/02 12:27:31;;;;;;;5.97;2.70;;;10.60;55.60;;;;;;5043125;28;20482;-84
2021/12/02 12:30:04;;;;;;;5.88;2.60;;;10.60;55.80;;;;;;5047338;28;20029;-84
2021/12/02 12:35:08;;;;;;;4.47;2.30;;;10.60;56.00;;;;;;5052392;28;20032;-84
2021/12/02 12:40:14;;;;;;;3.97;1.95;;;10.70;55.90;;;;;;5047988;28;20029;-84
2021/12/02 12:42:52;;;;;;;3.97;1.77;;;10.70;55.90;;;;;;5050443;28;20095;-84
2021/12/02 12:45:31;;;;;;;5.50;2.40;;;10.60;55.90;;;;;;5048276;28;20136;-84
2021/12/02 12:48:03;;;;;;;4.57;1.88;;;10.60;56.10;;;;;;5046792;28;20110;-84
2021/12/02 12:50:28;;;;;;;6.15;2.88;;;10.50;56.20;;;;;;5042223;28;20040;-84
2021/12/02 12:53:17;;;;;;;;;;;10.50;56.40;;;;;;5048721;28;20032;-84
2021/12/02 12:56:03;;;;;;;7.47;2.90;;;10.50;56.60;;;;;;5041494;28;19948;-84
2021/12/02 12:58:31;;;;;;;6.35;2.25;;;10.50;56.50;;;;;;5045141;28;20013;-83
2021/12/02 13:01:34;;;;;;;7.22;2.67;;;10.50;55.80;;;;;;5045099;28;20026;-82
2021/12/02 13:04:07;;;;;;;3.78;1.85;;;10.30;56.10;;;;;;5042786;28;20055;-82
2021/12/02 13:07:22;;;;;;;6.25;2.88;;;10.30;56.40;;;;;;5032320;28;20041;-82
2021/12/02 13:10:25;;;;;;;8.07;4.30;;;10.10;56.80;;;;;;4989631;28;20045;-83
2021/12/02 13:12:57;;;;;;;14.00;7.18;;;10.10;56.50;;;;;;5012044;28;20395;-84
2021/12/02 13:15:28;;;;;;;28.42;12.82;;;10.10;56.60;;;;;;5009127;28;20033;-82
2021/12/02 13:18:01;;;;;;;9.40;5.10;;;10.00;56.90;;;;;;4986562;28;20034;-83
2021/12/02 13:20:44;;;;;;;16.38;7.35;;;9.90;56.80;;;;;;4982896;28;20161;-82
2021/12/02 13:23:12;;;;;;;23.40;9.93;;;9.90;56.80;;;;;;4982169;28;20629;-85
2021/12/02 13:25:54;;;;;;;12.60;5.97;;;9.90;57.00;;;;;;5001046;28;20537;-86
2021/12/02 13:28:31;;;;;;;8.40;4.38;;;9.80;57.00;;;;;;5001343;28;20042;-86
2021/12/02 13:31:08;;;;;;;8.52;3.45;;;9.80;56.90;;;;;;5001943;28;20026;-86
2021/12/02 13:33:42;;;;;;;10.18;2.70;;;9.80;57.00;;;;;;5003731;28;20036;-86
2021/12/02 13:36:14;;;;;;;5.03;2.40;;;9.70;57.20;;;;;;4995354;28;20393;-86
2021/12/02 13:38:58;;;;;;;5.03;2.95;;;9.70;57.20;;;;;;5011922;28;20482;-85
2021/12/02 13:41:25;;;;;;;2.25;1.13;;;9.60;57.30;;;;;;4995448;28;20030;-86
2021/12/02 13:44:05;;;;;;;6.22;3.20;;;9.60;57.10;;;;;;4995729;28;20526;-86
2021/12/02 13:46:47;;;;;;;6.93;3.58;;;9.50;57.20;;;;;;5011362;28;20030;-86
2021/12/02 13:49:17;;;;;;;6.38;3.60;;;9.50;57.50;;;;;;5011962;28;20069;-86
2021/12/02 13:54:32;;;;;;;4.20;2.00;;;9.40;57.80;;;;;;5012491;28;20132;-86
2021/12/02 13:57:00;;;;;;;6.13;2.28;;;9.30;57.40;;;;;;5011554;28;20052;-86
2021/12/02 13:59:38;;;;;;;3.83;2.15;;;9.30;57.50;;;;;;4994678;28;20077;-87